sensor_id;sensor_type;location;lat;lon;timestamp;pressure;altitude;pressure_sealevel;temperature;humidity
62697;BME280;48761;42.680;23.312;2023-02-12T00:02:17;95787.25;;;0.97;43.57
62697;BME280;48761;42.680;23.312;2023-02-12T00:04:43;95778.31;;;1.10;43.28
62697;BME280;48761;42.680;23.312;2023-02-12T00:07:09;95799.19;;;1.15;43.76
62697;BME280;48761;42.680;23.312;2023-02-12T00:09:36;95793.16;;;1.10;43.69
62697;BME280;48761;42.680;23.312;2023-02-12T00:12:04;95784.56;;;1.02;43.10
62697;BME280;48761;42.680;23.312;2023-02-12T00:14:33;95725.63;;;0.77;43.25
62697;BME280;48761;42.680;23.312;2023-02-12T00:16:59;95754.31;;;0.85;43.31
62697;BME280;48761;42.680;23.312;2023-02-12T00:19:25;95768.00;;;1.01;42.99
62697;BME280;48761;42.680;23.312;2023-02-12T00:21:54;95745.63;;;0.83;43.15
62697;BME280;48761;42.680;23.312;2023-02-12T00:24:20;95768.81;;;1.05;43.55
62697;BME280;48761;42.680;23.312;2023-02-12T00:26:46;95773.22;;;1.03;42.91
62697;BME280;48761;42.680;23.312;2023-02-12T00:29:15;95776.63;;;1.08;43.00
62697;BME280;48761;42.680;23.312;2023-02-12T00:31:41;95726.59;;;0.71;43.04
62697;BME280;48761;42.680;23.312;2023-02-12T00:34:09;95798.44;;;1.08;43.10
62697;BME280;48761;42.680;23.312;2023-02-12T00:36:35;95775.78;;;1.04;43.05
62697;BME280;48761;42.680;23.312;2023-02-12T00:39:16;95792.28;;;1.09;43.11
62697;BME280;48761;42.680;23.312;2023-02-12T00:41:42;95705.47;;;0.82;42.87
62697;BME280;48761;42.680;23.312;2023-02-12T00:44:08;95696.09;;;0.69;42.94
62697;BME280;48761;42.680;23.312;2023-02-12T00:46:34;95735.03;;;0.89;43.38
62697;BME280;48761;42.680;23.312;2023-02-12T00:49:03;95712.63;;;0.72;43.25
62697;BME280;48761;42.680;23.312;2023-02-12T00:51:29;95686.41;;;0.74;42.92
62697;BME280;48761;42.680;23.312;2023-02-12T00:53:58;95743.28;;;1.16;43.41
62697;BME280;48761;42.680;23.312;2023-02-12T00:56:24;95720.91;;;0.98;43.56
62697;BME280;48761;42.680;23.312;2023-02-12T00:58:50;95710.59;;;0.90;43.24
62697;BME280;48761;42.680;23.312;2023-02-12T01:01:16;95682.00;;;0.76;43.28
62697;BME280;48761;42.680;23.312;2023-02-12T01:03:45;95738.22;;;1.07;43.35
62697;BME280;48761;42.680;23.312;2023-02-12T01:06:18;95693.72;;;1.05;42.84
62697;BME280;48761;42.680;23.312;2023-02-12T01:08:50;95734.25;;;1.33;43.05
62697;BME280;48761;42.680;23.312;2023-02-12T01:11:17;95659.31;;;0.76;43.15
62697;BME280;48761;42.680;23.312;2023-02-12T01:13:43;95673.06;;;0.89;43.09
62697;BME280;48761;42.680;23.312;2023-02-12T01:16:22;95742.16;;;1.30;43.15
62697;BME280;48761;42.680;23.312;2023-02-12T01:18:52;95685.97;;;1.00;42.93
62697;BME280;48761;42.680;23.312;2023-02-12T01:21:37;95721.38;;;1.20;42.84
62697;BME280;48761;42.680;23.312;2023-02-12T01:24:03;95734.72;;;1.08;43.53
62697;BME280;48761;42.680;23.312;2023-02-12T01:26:32;95711.41;;;0.92;43.25
62697;BME280;48761;42.680;23.312;2023-02-12T01:29:04;95693.31;;;0.80;43.44
62697;BME280;48761;42.680;23.312;2023-02-12T01:31:49;95723.50;;;1.01;43.91
62697;BME280;48761;42.680;23.312;2023-02-12T01:34:16;95713.16;;;0.93;44.31
62697;BME280;48761;42.680;23.312;2023-02-12T01:36:42;95752.03;;;1.15;44.15
62697;BME280;48761;42.680;23.312;2023-02-12T01:39:10;95744.41;;;1.03;44.36
62697;BME280;48761;42.680;23.312;2023-02-12T01:41:41;95721.97;;;0.87;44.70
62697;BME280;48761;42.680;23.312;2023-02-12T01:44:20;95704.69;;;0.77;44.63
62697;BME280;48761;42.680;23.312;2023-02-12T01:47:11;95704.97;;;1.09;44.50
62697;BME280;48761;42.680;23.312;2023-02-12T01:49:43;95697.94;;;1.13;44.32
62697;BME280;48761;42.680;23.312;2023-02-12T01:52:23;95721.41;;;1.19;44.71
62697;BME280;48761;42.680;23.312;2023-02-12T01:54:53;95718.94;;;1.11;44.89
62697;BME280;48761;42.680;23.312;2023-02-12T01:57:21;95712.16;;;1.00;44.74
62697;BME280;48761;42.680;23.312;2023-02-12T01:59:49;95720.59;;;1.15;44.75
62697;BME280;48761;42.680;23.312;2023-02-12T02:02:18;95711.88;;;1.16;44.94
62697;BME280;48761;42.680;23.312;2023-02-12T02:04:47;95681.78;;;0.90;44.76
62697;BME280;48761;42.680;23.312;2023-02-12T02:07:18;95732.59;;;1.29;44.78
62697;BME280;48761;42.680;23.312;2023-02-12T02:09:47;95694.66;;;1.03;45.10
62697;BME280;48761;42.680;23.312;2023-02-12T02:12:16;95706.72;;;1.10;44.87
62697;BME280;48761;42.680;23.312;2023-02-12T02:14:44;95693.78;;;1.02;45.44
62697;BME280;48761;42.680;23.312;2023-02-12T02:28:25;95726.50;;;0.77;46.74
62697;BME280;48761;42.680;23.312;2023-02-12T02:33:39;95722.72;;;0.94;46.64
62697;BME280;48761;42.680;23.312;2023-02-12T02:36:45;95726.03;;;1.06;46.26
62697;BME280;48761;42.680;23.312;2023-02-12T02:41:46;95720.31;;;0.83;47.53
62697;BME280;48761;42.680;23.312;2023-02-12T02:44:22;95721.06;;;0.90;47.45
62697;BME280;48761;42.680;23.312;2023-02-12T02:46:51;95693.72;;;0.54;47.61
62697;BME280;48761;42.680;23.312;2023-02-12T02:49:24;95730.75;;;0.85;47.38
62697;BME280;48761;42.680;23.312;2023-02-12T02:52:00;95713.97;;;0.95;47.37
62697;BME280;48761;42.680;23.312;2023-02-12T02:54:32;95729.13;;;0.77;47.32
62697;BME280;48761;42.680;23.312;2023-02-12T02:57:10;95721.31;;;0.74;47.55
62697;BME280;48761;42.680;23.312;2023-02-12T02:59:51;95733.28;;;0.89;47.98
62697;BME280;48761;42.680;23.312;2023-02-12T03:02:36;95702.16;;;0.72;47.45
62697;BME280;48761;42.680;23.312;2023-02-12T03:05:02;95739.50;;;0.82;48.10
62697;BME280;48761;42.680;23.312;2023-02-12T03:07:35;95704.88;;;0.68;48.10
62697;BME280;48761;42.680;23.312;2023-02-12T03:10:11;95739.34;;;0.92;48.72
62697;BME280;48761;42.680;23.312;2023-02-12T03:12:47;95738.44;;;0.94;48.15
62697;BME280;48761;42.680;23.312;2023-02-12T03:15:25;95736.06;;;0.78;48.44
62697;BME280;48761;42.680;23.312;2023-02-12T03:18:01;95741.25;;;0.82;48.78
62697;BME280;48761;42.680;23.312;2023-02-12T03:20:34;95682.72;;;0.33;49.38
62697;BME280;48761;42.680;23.312;2023-02-12T03:23:18;95728.16;;;0.82;48.85
62697;BME280;48761;42.680;23.312;2023-02-12T03:25:58;95704.19;;;0.54;49.29
62697;BME280;48761;42.680;23.312;2023-02-12T03:28:31;95730.25;;;0.61;49.57
62697;BME280;48761;42.680;23.312;2023-02-12T03:31:01;95727.44;;;0.75;49.38
62697;BME280;48761;42.680;23.312;2023-02-12T03:36:50;95724.31;;;1.02;48.88
62697;BME280;48761;42.680;23.312;2023-02-12T03:41:57;95724.47;;;0.95;49.25
62697;BME280;48761;42.680;23.312;2023-02-12T03:44:51;95728.88;;;0.92;49.07
62697;BME280;48761;42.680;23.312;2023-02-12T03:50:16;95720.66;;;1.12;48.96
62697;BME280;48761;42.680;23.312;2023-02-12T03:52:46;95732.09;;;1.08;48.95
62697;BME280;48761;42.680;23.312;2023-02-12T03:55:14;95716.91;;;1.26;48.42
62697;BME280;48761;42.680;23.312;2023-02-12T03:57:47;95706.09;;;0.97;48.54
62697;BME280;48761;42.680;23.312;2023-02-12T04:00:18;95715.94;;;0.82;49.61
62697;BME280;48761;42.680;23.312;2023-02-12T04:02:44;95683.00;;;0.70;49.90
62697;BME280;48761;42.680;23.312;2023-02-12T04:05:22;95688.72;;;0.91;49.34
62697;BME280;48761;42.680;23.312;2023-02-12T04:07:49;95721.09;;;0.87;49.26
62697;BME280;48761;42.680;23.312;2023-02-12T04:10:16;95720.94;;;0.96;49.25
62697;BME280;48761;42.680;23.312;2023-02-12T04:12:53;95701.28;;;0.72;49.98
62697;BME280;48761;42.680;23.312;2023-02-12T04:15:32;95713.25;;;0.88;49.41
62697;BME280;48761;42.680;23.312;2023-02-12T04:20:41;95730.06;;;0.73;50.35
62697;BME280;48761;42.680;23.312;2023-02-12T04:31:48;95742.31;;;0.71;50.70
62697;BME280;48761;42.680;23.312;2023-02-12T04:37:04;95742.63;;;0.52;50.70
62697;BME280;48761;42.680;23.312;2023-02-12T04:39:36;95737.31;;;0.57;50.84
62697;BME280;48761;42.680;23.312;2023-02-12T04:42:03;95726.81;;;0.59;50.55
62697;BME280;48761;42.680;23.312;2023-02-12T04:44:32;95746.81;;;0.63;50.66
62697;BME280;48761;42.680;23.312;2023-02-12T04:46:58;95714.66;;;0.54;50.12
62697;BME280;48761;42.680;23.312;2023-02-12T04:49:25;95750.91;;;0.80;50.60
62697;BME280;48761;42.680;23.312;2023-02-12T04:51:52;95745.66;;;0.80;50.19
62697;BME280;48761;42.680;23.312;2023-02-12T04:54:20;95743.66;;;0.94;49.73
62697;BME280;48761;42.680;23.312;2023-02-12T04:56:47;95750.81;;;0.86;50.15
62697;BME280;48761;42.680;23.312;2023-02-12T04:59:13;95714.06;;;0.89;49.66
62697;BME280;48761;42.680;23.312;2023-02-12T05:01:40;95733.19;;;0.94;49.67
62697;BME280;48761;42.680;23.312;2023-02-12T05:04:07;95692.59;;;0.70;49.98
62697;BME280;48761;42.680;23.312;2023-02-12T05:06:35;95733.09;;;1.00;49.78
62697;BME280;48761;42.680;23.312;2023-02-12T05:09:02;95738.22;;;1.07;50.03
62697;BME280;48761;42.680;23.312;2023-02-12T05:11:28;95754.56;;;1.20;49.74
62697;BME280;48761;42.680;23.312;2023-02-12T05:13:54;95715.88;;;0.87;49.99
62697;BME280;48761;42.680;23.312;2023-02-12T05:16:21;95772.91;;;1.20;49.70
62697;BME280;48761;42.680;23.312;2023-02-12T05:18:47;95728.06;;;0.88;49.96
62697;BME280;48761;42.680;23.312;2023-02-12T05:21:13;95776.41;;;1.20;50.61
62697;BME280;48761;42.680;23.312;2023-02-12T05:23:40;95765.09;;;1.18;50.83
62697;BME280;48761;42.680;23.312;2023-02-12T05:26:12;95750.38;;;1.11;51.29
62697;BME280;48761;42.680;23.312;2023-02-12T05:28:38;95787.44;;;1.37;51.00
62697;BME280;48761;42.680;23.312;2023-02-12T05:31:06;95731.56;;;0.87;50.39
62697;BME280;48761;42.680;23.312;2023-02-12T05:33:32;95783.28;;;1.25;50.15
62697;BME280;48761;42.680;23.312;2023-02-12T05:36:07;95781.63;;;1.20;50.64
62697;BME280;48761;42.680;23.312;2023-02-12T05:38:33;95773.25;;;0.99;51.55
62697;BME280;48761;42.680;23.312;2023-02-12T05:41:07;95797.63;;;1.05;51.87
62697;BME280;48761;42.680;23.312;2023-02-12T05:43:33;95773.63;;;0.77;52.73
62697;BME280;48761;42.680;23.312;2023-02-12T05:46:01;95809.13;;;0.96;53.56
62697;BME280;48761;42.680;23.312;2023-02-12T05:48:28;95804.88;;;0.88;54.02
62697;BME280;48761;42.680;23.312;2023-02-12T05:51:11;95814.50;;;0.86;54.88
62697;BME280;48761;42.680;23.312;2023-02-12T05:53:38;95813.72;;;0.80;55.28
62697;BME280;48761;42.680;23.312;2023-02-12T05:58:37;95807.66;;;0.76;56.66
62697;BME280;48761;42.680;23.312;2023-02-12T06:01:09;95810.28;;;0.77;56.61
62697;BME280;48761;42.680;23.312;2023-02-12T06:03:35;95813.84;;;0.73;56.38
62697;BME280;48761;42.680;23.312;2023-02-12T06:06:01;95805.09;;;0.74;56.83
62697;BME280;48761;42.680;23.312;2023-02-12T06:08:27;95821.63;;;0.78;56.78
62697;BME280;48761;42.680;23.312;2023-02-12T06:10:53;95819.88;;;0.77;57.81
62697;BME280;48761;42.680;23.312;2023-02-12T06:13:19;95819.00;;;0.78;58.36
62697;BME280;48761;42.680;23.312;2023-02-12T06:15:45;95815.28;;;0.93;58.20
62697;BME280;48761;42.680;23.312;2023-02-12T06:18:11;95816.31;;;0.81;58.97
62697;BME280;48761;42.680;23.312;2023-02-12T06:20:38;95791.16;;;0.72;59.96
62697;BME280;48761;42.680;23.312;2023-02-12T06:23:04;95779.25;;;0.52;60.27
62697;BME280;48761;42.680;23.312;2023-02-12T06:25:30;95817.34;;;0.72;61.24
62697;BME280;48761;42.680;23.312;2023-02-12T06:27:56;95791.28;;;0.64;61.14
62697;BME280;48761;42.680;23.312;2023-02-12T06:30:22;95824.25;;;0.76;62.47
62697;BME280;48761;42.680;23.312;2023-02-12T06:32:49;95826.94;;;0.72;63.44
62697;BME280;48761;42.680;23.312;2023-02-12T06:35:15;95819.88;;;0.77;63.82
62697;BME280;48761;42.680;23.312;2023-02-12T06:37:40;95826.94;;;0.73;65.52
62697;BME280;48761;42.680;23.312;2023-02-12T06:40:07;95833.13;;;0.66;66.02
62697;BME280;48761;42.680;23.312;2023-02-12T06:42:33;95826.84;;;0.78;66.19
62697;BME280;48761;42.680;23.312;2023-02-12T06:44:59;95830.13;;;0.91;65.42
62697;BME280;48761;42.680;23.312;2023-02-12T06:47:26;95819.59;;;0.94;65.47
62697;BME280;48761;42.680;23.312;2023-02-12T06:49:52;95804.88;;;0.87;65.38
62697;BME280;48761;42.680;23.312;2023-02-12T06:52:18;95809.97;;;0.96;65.10
62697;BME280;48761;42.680;23.312;2023-02-12T06:54:44;95818.19;;;1.27;65.11
62697;BME280;48761;42.680;23.312;2023-02-12T06:57:10;95830.22;;;1.37;64.76
62697;BME280;48761;42.680;23.312;2023-02-12T06:59:36;95822.28;;;1.42;64.57
62697;BME280;48761;42.680;23.312;2023-02-12T07:02:02;95825.91;;;1.36;64.76
62697;BME280;48761;42.680;23.312;2023-02-12T07:04:34;95832.28;;;1.19;65.30
62697;BME280;48761;42.680;23.312;2023-02-12T07:07:05;95802.75;;;1.11;65.04
62697;BME280;48761;42.680;23.312;2023-02-12T07:09:31;95835.81;;;1.18;65.43
62697;BME280;48761;42.680;23.312;2023-02-12T07:11:58;95842.19;;;1.02;65.75
62697;BME280;48761;42.680;23.312;2023-02-12T07:14:24;95829.59;;;1.24;65.20
62697;BME280;48761;42.680;23.312;2023-02-12T07:16:50;95831.38;;;1.22;65.06
62697;BME280;48761;42.680;23.312;2023-02-12T07:19:16;95837.31;;;1.32;64.78
62697;BME280;48761;42.680;23.312;2023-02-12T07:21:42;95826.97;;;1.26;65.06
62697;BME280;48761;42.680;23.312;2023-02-12T07:24:10;95845.50;;;1.11;65.25
62697;BME280;48761;42.680;23.312;2023-02-12T07:26:36;95843.84;;;1.07;65.70
62697;BME280;48761;42.680;23.312;2023-02-12T07:29:02;95842.09;;;1.06;65.89
62697;BME280;48761;42.680;23.312;2023-02-12T07:31:29;95811.78;;;0.91;65.64
62697;BME280;48761;42.680;23.312;2023-02-12T07:33:56;95831.78;;;0.97;65.54
62697;BME280;48761;42.680;23.312;2023-02-12T07:36:24;95804.19;;;0.77;65.91
62697;BME280;48761;42.680;23.312;2023-02-12T07:38:50;95852.56;;;1.08;65.98
62697;BME280;48761;42.680;23.312;2023-02-12T07:41:22;95840.56;;;0.94;65.80
62697;BME280;48761;42.680;23.312;2023-02-12T07:43:53;95848.22;;;1.07;65.73
62697;BME280;48761;42.680;23.312;2023-02-12T07:46:31;95862.44;;;0.90;66.57
62697;BME280;48761;42.680;23.312;2023-02-12T07:48:58;95865.03;;;0.93;66.70
62697;BME280;48761;42.680;23.312;2023-02-12T07:51:26;95865.34;;;0.71;67.49
62697;BME280;48761;42.680;23.312;2023-02-12T07:53:52;95846.94;;;0.77;67.41
62697;BME280;48761;42.680;23.312;2023-02-12T07:56:23;95860.78;;;0.86;67.83
62697;BME280;48761;42.680;23.312;2023-02-12T07:58:51;95867.69;;;0.90;67.24
62697;BME280;48761;42.680;23.312;2023-02-12T08:01:21;95864.03;;;0.99;67.25
62697;BME280;48761;42.680;23.312;2023-02-12T08:03:48;95866.66;;;1.00;67.28
62697;BME280;48761;42.680;23.312;2023-02-12T08:06:16;95864.84;;;1.06;66.94
62697;BME280;48761;42.680;23.312;2023-02-12T08:08:42;95847.56;;;0.92;67.14
62697;BME280;48761;42.680;23.312;2023-02-12T08:11:09;95858.56;;;1.16;66.81
62697;BME280;48761;42.680;23.312;2023-02-12T08:13:36;95860.59;;;0.98;67.25
62697;BME280;48761;42.680;23.312;2023-02-12T08:16:11;95856.97;;;1.06;67.17
62697;BME280;48761;42.680;23.312;2023-02-12T08:18:37;95867.69;;;0.90;68.22
62697;BME280;48761;42.680;23.312;2023-02-12T08:21:20;95868.38;;;1.02;68.24
62697;BME280;48761;42.680;23.312;2023-02-12T08:23:47;95854.19;;;1.15;67.30
62697;BME280;48761;42.680;23.312;2023-02-12T08:26:18;95870.59;;;1.27;67.66
62697;BME280;48761;42.680;23.312;2023-02-12T08:28:51;95873.31;;;1.20;67.47
62697;BME280;48761;42.680;23.312;2023-02-12T08:31:18;95878.53;;;1.22;67.51
62697;BME280;48761;42.680;23.312;2023-02-12T08:33:49;95880.97;;;1.33;67.53
62697;BME280;48761;42.680;23.312;2023-02-12T08:36:17;95889.09;;;1.19;67.84
62697;BME280;48761;42.680;23.312;2023-02-12T08:38:45;95893.34;;;1.25;67.53
62697;BME280;48761;42.680;23.312;2023-02-12T08:41:15;95892.53;;;1.21;67.85
62697;BME280;48761;42.680;23.312;2023-02-12T08:43:42;95880.09;;;1.32;67.51
62697;BME280;48761;42.680;23.312;2023-02-12T08:46:16;95894.69;;;1.48;67.33
62697;BME280;48761;42.680;23.312;2023-02-12T08:48:44;95896.91;;;1.20;67.64
62697;BME280;48761;42.680;23.312;2023-02-12T08:51:16;95896.66;;;1.36;67.77
62697;BME280;48761;42.680;23.312;2023-02-12T08:53:45;95902.91;;;1.27;67.81
62697;BME280;48761;42.680;23.312;2023-02-12T08:56:13;95893.91;;;1.42;67.22
62697;BME280;48761;42.680;23.312;2023-02-12T08:58:40;95905.09;;;1.54;67.25
62697;BME280;48761;42.680;23.312;2023-02-12T09:04:00;95875.19;;;1.14;68.23
62697;BME280;48761;42.680;23.312;2023-02-12T09:06:26;95907.19;;;1.33;68.27
62697;BME280;48761;42.680;23.312;2023-02-12T09:08:54;95908.34;;;1.15;68.75
62697;BME280;48761;42.680;23.312;2023-02-12T09:11:23;95917.47;;;1.45;68.32
62697;BME280;48761;42.680;23.312;2023-02-12T09:13:50;95874.19;;;1.19;68.27
62697;BME280;48761;42.680;23.312;2023-02-12T09:16:16;95924.31;;;1.53;68.56
62697;BME280;48761;42.680;23.312;2023-02-12T09:18:42;95896.78;;;1.27;68.47
62697;BME280;48761;42.680;23.312;2023-02-12T09:21:13;95929.25;;;1.72;68.03
62697;BME280;48761;42.680;23.312;2023-02-12T09:23:40;95920.47;;;1.74;68.20
62697;BME280;48761;42.680;23.312;2023-02-12T09:26:08;95907.97;;;1.87;67.88
62697;BME280;48761;42.680;23.312;2023-02-12T09:28:35;95895.03;;;1.78;67.18
62697;BME280;48761;42.680;23.312;2023-02-12T09:31:06;95925.41;;;1.90;67.36
62697;BME280;48761;42.680;23.312;2023-02-12T09:33:33;95871.59;;;1.70;66.85
62697;BME280;48761;42.680;23.312;2023-02-12T09:36:01;95929.25;;;1.72;67.46
62697;BME280;48761;42.680;23.312;2023-02-12T09:38:28;95859.84;;;1.42;67.39
62697;BME280;48761;42.680;23.312;2023-02-12T09:46:29;95929.78;;;1.91;67.51
62697;BME280;48761;42.680;23.312;2023-02-12T09:51:48;95942.75;;;1.99;66.91
62697;BME280;48761;42.680;23.312;2023-02-12T09:54:17;95947.50;;;1.78;67.63
62697;BME280;48761;42.680;23.312;2023-02-12T09:56:57;95932.94;;;1.61;67.40
62697;BME280;48761;42.680;23.312;2023-02-12T09:59:34;95948.28;;;1.83;67.48
62697;BME280;48761;42.680;23.312;2023-02-12T10:02:12;95948.09;;;1.93;67.35
62697;BME280;48761;42.680;23.312;2023-02-12T10:04:39;95947.44;;;1.81;67.77
62697;BME280;48761;42.680;23.312;2023-02-12T10:12:50;95930.97;;;1.73;68.36
62697;BME280;48761;42.680;23.312;2023-02-12T10:26:24;95935.13;;;2.32;66.70
62697;BME280;48761;42.680;23.312;2023-02-12T10:28:53;95929.69;;;2.42;66.05
62697;BME280;48761;42.680;23.312;2023-02-12T10:31:39;95942.84;;;2.40;65.68
62697;BME280;48761;42.680;23.312;2023-02-12T10:34:17;95902.41;;;2.06;66.21
62697;BME280;48761;42.680;23.312;2023-02-12T10:36:48;95943.44;;;2.53;65.64
62697;BME280;48761;42.680;23.312;2023-02-12T10:44:28;95931.50;;;2.38;65.80
62697;BME280;48761;42.680;23.312;2023-02-12T10:46:54;95937.69;;;2.35;65.80
62697;BME280;48761;42.680;23.312;2023-02-12T10:49:21;95933.75;;;2.57;66.01
62697;BME280;48761;42.680;23.312;2023-02-12T10:52:02;95929.50;;;2.51;65.56
62697;BME280;48761;42.680;23.312;2023-02-12T10:54:42;95931.16;;;2.55;65.54
62697;BME280;48761;42.680;23.312;2023-02-12T10:57:22;95939.03;;;2.57;65.57
62697;BME280;48761;42.680;23.312;2023-02-12T10:59:53;95942.25;;;2.70;65.46
62697;BME280;48761;42.680;23.312;2023-02-12T11:02:29;95941.59;;;2.60;65.40
62697;BME280;48761;42.680;23.312;2023-02-12T11:04:56;95940.66;;;2.63;65.57
62697;BME280;48761;42.680;23.312;2023-02-12T11:07:23;95950.19;;;2.67;65.52
62697;BME280;48761;42.680;23.312;2023-02-12T11:09:51;95913.91;;;2.45;65.75
62697;BME280;48761;42.680;23.312;2023-02-12T11:12:33;95944.13;;;2.65;65.61
62697;BME280;48761;42.680;23.312;2023-02-12T11:15:15;95943.59;;;2.88;64.66
62697;BME280;48761;42.680;23.312;2023-02-12T11:17:44;95939.41;;;2.79;65.42
62697;BME280;48761;42.680;23.312;2023-02-12T11:25:34;95935.25;;;3.10;65.07
62697;BME280;48761;42.680;23.312;2023-02-12T11:28:15;95919.38;;;3.15;64.39
62697;BME280;48761;42.680;23.312;2023-02-12T11:30:53;95940.09;;;3.28;63.63
62697;BME280;48761;42.680;23.312;2023-02-12T11:38:51;95893.22;;;3.09;63.06
62697;BME280;48761;42.680;23.312;2023-02-12T11:41:34;95911.97;;;3.31;63.25
62697;BME280;48761;42.680;23.312;2023-02-12T11:44:12;95926.78;;;3.35;63.61
62697;BME280;48761;42.680;23.312;2023-02-12T11:46:56;95929.63;;;3.63;63.20
62697;BME280;48761;42.680;23.312;2023-02-12T11:49:40;95869.81;;;3.36;62.03
62697;BME280;48761;42.680;23.312;2023-02-12T11:52:18;95903.00;;;3.40;62.41
62697;BME280;48761;42.680;23.312;2023-02-12T11:54:46;95916.78;;;3.50;62.35
62697;BME280;48761;42.680;23.312;2023-02-12T11:57:46;95934.69;;;3.34;62.98
62697;BME280;48761;42.680;23.312;2023-02-12T12:02:48;95901.56;;;3.27;62.85
62697;BME280;48761;42.680;23.312;2023-02-12T12:05:19;95941.44;;;3.44;62.78
62697;BME280;48761;42.680;23.312;2023-02-12T12:07:57;95906.47;;;3.42;62.51
62697;BME280;48761;42.680;23.312;2023-02-12T12:10:35;95935.75;;;3.63;62.68
62697;BME280;48761;42.680;23.312;2023-02-12T12:13:34;95935.06;;;3.55;62.45
62697;BME280;48761;42.680;23.312;2023-02-12T12:16:10;95910.50;;;3.56;62.31
62697;BME280;48761;42.680;23.312;2023-02-12T12:18:51;95916.53;;;3.61;62.37
62697;BME280;48761;42.680;23.312;2023-02-12T12:21:38;95936.63;;;3.64;61.60
62697;BME280;48761;42.680;23.312;2023-02-12T12:24:28;95932.75;;;3.79;61.68
62697;BME280;48761;42.680;23.312;2023-02-12T12:27:20;95926.19;;;3.59;62.38
62697;BME280;48761;42.680;23.312;2023-02-12T12:29:59;95952.31;;;3.67;61.34
62697;BME280;48761;42.680;23.312;2023-02-12T12:32:28;95925.69;;;3.44;61.56
62697;BME280;48761;42.680;23.312;2023-02-12T12:34:56;95899.69;;;3.32;61.67
62697;BME280;48761;42.680;23.312;2023-02-12T12:37:37;95921.34;;;3.42;61.97
62697;BME280;48761;42.680;23.312;2023-02-12T12:40:29;95890.94;;;3.31;61.57
62697;BME280;48761;42.680;23.312;2023-02-12T12:46:13;95929.47;;;3.69;61.68
62697;BME280;48761;42.680;23.312;2023-02-12T13:00:40;95962.13;;;3.95;61.58
62697;BME280;48761;42.680;23.312;2023-02-12T13:03:32;95965.13;;;3.81;61.45
62697;BME280;48761;42.680;23.312;2023-02-12T13:06:28;95961.44;;;3.88;61.72
62697;BME280;48761;42.680;23.312;2023-02-12T13:14:43;95970.22;;;3.87;62.12
62697;BME280;48761;42.680;23.312;2023-02-12T13:23:02;95946.34;;;3.60;62.45
62697;BME280;48761;42.680;23.312;2023-02-12T13:28:28;95915.03;;;3.51;62.01
62697;BME280;48761;42.680;23.312;2023-02-12T13:31:11;95945.41;;;3.63;62.02
62697;BME280;48761;42.680;23.312;2023-02-12T13:40:42;95953.25;;;3.64;62.41
62697;BME280;48761;42.680;23.312;2023-02-12T13:47:03;95987.03;;;3.81;62.37
62697;BME280;48761;42.680;23.312;2023-02-12T14:06:19;96003.25;;;3.63;63.17
62697;BME280;48761;42.680;23.312;2023-02-12T14:08:50;95955.88;;;3.28;63.32
62697;BME280;48761;42.680;23.312;2023-02-12T14:11:20;95955.72;;;3.34;63.48
62697;BME280;48761;42.680;23.312;2023-02-12T14:13:52;96025.06;;;3.68;63.19
62697;BME280;48761;42.680;23.312;2023-02-12T14:24:58;96002.97;;;3.37;63.50
62697;BME280;48761;42.680;23.312;2023-02-12T14:30:31;96032.41;;;3.53;63.62
62697;BME280;48761;42.680;23.312;2023-02-12T14:33:22;96010.69;;;3.45;63.31
62697;BME280;48761;42.680;23.312;2023-02-12T14:36:13;96031.34;;;3.99;70.73
62697;BME280;48761;42.680;23.312;2023-02-12T14:41:32;96015.19;;;3.40;63.96
62697;BME280;48761;42.680;23.312;2023-02-12T14:46:52;96059.38;;;3.62;63.94
62697;BME280;48761;42.680;23.312;2023-02-12T14:54:53;96065.66;;;3.56;64.52
62697;BME280;48761;42.680;23.312;2023-02-12T14:57:30;96058.25;;;3.34;64.26
62697;BME280;48761;42.680;23.312;2023-02-12T15:00:01;96063.38;;;3.40;64.22
62697;BME280;48761;42.680;23.312;2023-02-12T15:02:36;96077.44;;;3.38;64.36
62697;BME280;48761;42.680;23.312;2023-02-12T15:05:14;96053.75;;;3.39;64.19
62697;BME280;48761;42.680;23.312;2023-02-12T15:07:52;96073.94;;;3.37;64.57
62697;BME280;48761;42.680;23.312;2023-02-12T15:10:22;96081.38;;;3.18;64.55
62697;BME280;48761;42.680;23.312;2023-02-12T15:13:12;96089.66;;;3.40;64.74
62697;BME280;48761;42.680;23.312;2023-02-12T15:16:14;96056.63;;;3.28;64.47
62697;BME280;48761;42.680;23.312;2023-02-12T15:21:19;96109.53;;;3.54;65.09
62697;BME280;48761;42.680;23.312;2023-02-12T15:24:00;96097.75;;;3.31;64.77
62697;BME280;48761;42.680;23.312;2023-02-12T15:26:28;96098.59;;;3.33;64.88
62697;BME280;48761;42.680;23.312;2023-02-12T15:28:55;96129.00;;;3.45;65.00
62697;BME280;48761;42.680;23.312;2023-02-12T15:31:25;96114.41;;;3.30;65.46
62697;BME280;48761;42.680;23.312;2023-02-12T15:33:54;96134.22;;;3.46;65.26
62697;BME280;48761;42.680;23.312;2023-02-12T15:36:23;96148.22;;;3.49;65.09
62697;BME280;48761;42.680;23.312;2023-02-12T15:38:52;96144.72;;;3.46;65.35
62697;BME280;48761;42.680;23.312;2023-02-12T15:41:38;96149.88;;;3.53;65.28
62697;BME280;48761;42.680;23.312;2023-02-12T15:44:29;96150.69;;;3.56;64.99
62697;BME280;48761;42.680;23.312;2023-02-12T15:49:34;96166.16;;;3.28;65.91
62697;BME280;48761;42.680;23.312;2023-02-12T15:52:09;96159.81;;;3.38;66.31
62697;BME280;48761;42.680;23.312;2023-02-12T15:54:39;96149.31;;;3.36;65.84
62697;BME280;48761;42.680;23.312;2023-02-12T15:57:10;96168.63;;;3.35;65.87
62697;BME280;48761;42.680;23.312;2023-02-12T15:59:37;96166.16;;;3.28;65.97
62697;BME280;48761;42.680;23.312;2023-02-12T16:02:14;96175.59;;;3.38;65.67
62697;BME280;48761;42.680;23.312;2023-02-12T16:04:42;96167.97;;;3.25;66.04
62697;BME280;48761;42.680;23.312;2023-02-12T16:07:09;96200.53;;;3.18;66.45
62697;BME280;48761;42.680;23.312;2023-02-12T16:09:38;96194.09;;;3.32;66.45
62697;BME280;48761;42.680;23.312;2023-02-12T16:12:08;96195.97;;;3.27;66.50
62697;BME280;48761;42.680;23.312;2023-02-12T16:14:47;96202.81;;;3.34;66.48
62697;BME280;48761;42.680;23.312;2023-02-12T16:22:39;96206.22;;;3.39;66.30